Historyczne dane pomiarowe

Dodano dane terminowe – wersja testowa.

Dane z okresu 1951-2019

Wersja bazy: 1.34 [2019-03-16, lista zmian], aktualizacja planowana na 2019-04-15

Dane meteo z obszaru Polski uzyskane na podstawie danych udostępnionych przez Instytut Meteorologii i Gospodarki Wodnej – Państwowy Instytut Badawczy.

 

Wybierz Datę:    

       

TemperaturaWilgotnośćWiatrCiśnienieOpadyŚniegCzas trwania zjawisk
 Stacja t tx tn tng RH VA  wxwx mslp ppp RRR   cm mm wxwxwxwxwxwxwx
1999-08-14 15.9 21.9 9.7 5.1 72.5- 4.0 1.7---- 0.0------------
1999-08-13 14.8 19.5 11.6 10.2 78.0- 6.7 2.3---- 0.0------------
1999-08-12 15.8 18.8 13.7 12.9 78.8- 7.3 3.3---- 0.0------------
1999-08-11 17.6 23.0 14.0 11.0 92.5- 8.0 1.7---- 3.7------------
1999-08-10 20.5 25.4 15.2 14.6 92.5- 7.3 1.0---- 1.6------------
1999-08-09 23.3 28.6 18.7 15.2 80.0- 4.0 1.3---- 0.0------------
1999-08-08 21.8 28.5 15.7 14.5 79.3- 4.0 1.7---- 0.0------------
1999-08-07 20.2 27.9 13.9 12.0 84.3- 5.3 1.7---- 7.4------------
1999-08-06 21.3 26.9 15.2 12.7 74.3- 6.7 0.7---- 0.0------------
1999-08-05 19.2 26.9 11.2 7.6 69.8- 4.0 0.7---- 0.0------------
1999-08-04 17.9 25.9 9.9 6.4 77.3- 2.7 1.0---- 0.0------------
1999-08-03 17.8 23.0 12.7 9.8 78.8- 6.7 0.7---- 0.0------------
1999-08-02 17.7 23.0 10.9 8.1 80.3- 5.7 2.0---- 0.0------------
1999-08-01 19.0 25.7 12.2 10.0 67.3- 5.3 2.0---- 0.0------------
1999-07-31 18.9 25.9 11.2 8.8 68.5- 4.7 3.0---- 0.0------------
1999-07-30 18.2 24.5 11.6 9.5 69.5- 2.7 2.7---- 0.0------------
1999-07-29 18.2 24.0 12.8 11.0 77.0- 2.7 2.0---- 0.0------------
1999-07-28 18.8 24.1 13.4 11.5 67.3- 2.7 2.3---- 0.0------------
1999-07-27 17.9 23.3 13.4 13.0 83.3- 7.3 4.3---- 0.0------------
1999-07-26 20.4 26.5 13.6 10.0 76.0- 2.7 2.0---- 0.0------------
1999-07-25 17.8 24.9 9.2 6.6 71.0- 2.0 0.3---- 0.0------------
1999-07-24 16.0 20.5 12.2 12.4 82.8- 5.3 2.0---- 0.0------------
1999-07-23 18.2 26.0 14.2 12.5 84.5- 8.0 3.0---- 0.0------------
1999-07-22 19.4 24.1 16.1 13.2 67.3- 6.0 2.7---- 0.0------------
1999-07-21 22.7 28.1 17.7 14.3 77.8- 7.3 3.7---- 0.0------------
1999-07-20 22.6 29.5 14.7 11.7 71.5- 2.7 2.7---- 0.5------------
1999-07-19 20.8 28.3 12.6 9.2 70.0- 5.7 1.0---- 0.0------------
1999-07-18 19.3 26.1 11.2 10.0 69.0- 2.3 0.3---- 0.0------------
1999-07-17 17.4 23.6 9.7 7.3 73.3- 4.0 0.7---- 0.0------------
1999-07-16 15.8 21.5 9.2 6.6 81.5- 6.7 0.7---- 0.0------------
1999-07-15 15.8 18.5 13.7 10.2 83.0- 6.3 3.7---- 1.9------------
1999-07-14 19.7 25.4 16.7 15.0 95.0- 8.0 2.0---- 7.3------------
1999-07-13 19.5 26.4 14.7 12.2 88.8- 7.3 1.7---- 4.3------------
1999-07-12 19.4 25.9 13.9 14.0 88.0- 8.0 1.3---- 0.3------------
1999-07-11 18.8 21.0 16.0 15.0 85.3- 8.0 0.3---- 1.4------------
1999-07-10 19.7 23.0 17.2 16.5 81.8- 8.0 3.0---- 0.0------------
1999-07-09 16.6 18.7 13.2 14.0 97.0- 8.0 2.0---- 0.2------------
1999-07-08 15.0 16.8 13.7 14.5 96.3- 8.0 4.3---- 15.8------------
1999-07-07 19.2 22.9 16.3 15.0 91.3- 8.0 1.3---- 45.6------------
1999-07-06 23.2 30.3 17.2 14.0 83.8- 6.0 4.3---- 0.0------------
1999-07-05 23.2 29.0 17.7 16.0 75.8- 3.0 4.7---- 0.0------------
1999-07-04 23.0 29.8 14.7 10.0 71.5- 1.7 2.3---- 0.0------------
1999-07-03 19.7 24.3 14.2 11.0 73.0- 2.0 1.0---- 0.0------------
1999-07-02 19.0 24.0 14.9 9.1 96.0- 6.3 2.3---- 4.4------------
1999-07-01 18.2 22.0 13.7 11.2 95.0- 7.3 1.7---- 4.8------------
1999-06-30 19.8 24.9 13.8 12.5 71.5- 6.0 0.7---- 0.0------------
1999-06-29 18.6 23.0 12.7 10.2 72.0- 5.3 1.0---- 0.0------------
1999-06-28 19.4 26.6 14.0 9.1 76.3- 6.0 2.7---- 15.9------------
1999-06-27 19.3 24.6 13.6 10.7 69.8- 6.7 3.7---- 0.0------------
1999-06-26 15.8 23.8 8.9 8.1 79.5- 4.7 3.0---- 0.0------------
1999-06-25 13.0 18.0 5.8 2.2 75.3- 8.0 1.3---- 1.5------------
1999-06-24 12.8 17.0 6.6 3.4 74.5- 6.0 2.0---- 0.0------------
1999-06-23 12.0 16.4 8.0 7.8 78.8- 6.3 3.3---- 0.0------------
1999-06-22 9.0 12.2 7.3 7.1 96.8- 8.0 9.7---- 26.9------------
1999-06-21 15.8 21.2 11.7 12.0 85.5- 7.0 3.3---- 16.5------------
1999-06-20 16.8 22.1 10.6 7.6 87.5- 6.0 2.7---- 0.0------------
1999-06-19 15.2 18.3 12.5 12.2 95.3- 8.0 2.0---- 0.2------------
1999-06-18 15.7 20.0 12.8 13.0 96.3- 8.0 4.7---- 18.2------------
1999-06-17 17.9 21.3 14.3 14.5 88.3- 7.3 2.3---- 0.0------------
1999-06-16 16.4 19.0 14.2 14.0 95.3- 8.0 1.3---- 0.1------------
348.7 ms

 

Źródłem pochodzenia danych jest Instytut Meteorologii i Gospodarki Wodnej – Państwowy Instytut Badawczy. Dane Instytutu Meteorologii i Gospodarki Wodnej – Państwowego Instytutu Badawczego zostały przetworzone.

Dane źródłowe można odnaleźć na stronie https://dane.imgw.pl